Aérodrome :
LOGIN :

S'inscrire | Disclaimer

   EN    FR    IT 

 










Légende :    VFR   VFR Marginal   IFR   IFR Intensif   IFR Très Intensif
Visi : 
Plafond : 
>= 8 km
>= 3000ft
5 à 8 km
1000 à 3000 ft
1500m à 5 km
500 à 1000 ft
800 à 1500m
200 à 500 ft
< 800m
< 200 ft
Symboles :   Orages  Brouillard  Fortes neiges  Fortes précipitations  Vent > 20 kt
SIGMETs :   Divers  Orages  Givrage  Turbulence  Onde Orograph.  Cendres Volcan.







- Altitude de l'aérodrome : 538 ft
- Code IATA : TNF
- Voir les cartes d'approche


LFPN - Toussus Le Noble

DERNIER METAR :
  • 220630Z AUTO VRB02KT CAVOK 18/13 Q1013 NOSIG

METARs EXPIRÉS :
  • 220600Z AUTO VRB03KT CAVOK 15/13 Q1012 NOSIG
  • 220530Z AUTO 12002KT CAVOK 13/11 Q1012 NOSIG
  • 220500Z AUTO 18002KT CAVOK 14/10 Q1012
  • 220430Z AUTO 31002KT CAVOK 14/10 Q1012
  • 220400Z AUTO 10003KT 9999 ///CB 15/11 Q1012

TAF TAF LFPN
Valide du 22 à 06h jusqu'au 22 à 15h UTC


220500Z 2206/2215 18005KT CAVOK
BECMG 2210/2212 22010KT
TEMPO 2212/2215 22012G22KT
ATIS : +33 1 39 56 54 70
Pas de NOTAMs connus pour ce terrain.
1 SIGMET publié pour la FIR Paris (LFFF) :
 
Orages noyés dans la masse
LFFF SIGMET 2 VALID 220430/220600 LFPW
LFFF PARIS FIR/UIR EMBD TS FCST WI N4900 E00215 - N4945 E00245 - N4930 E00330 - N4900 E00315 - N4900 E00215 TOP FL340 MOV NE 20KT WKN=



MET'MAP, la Météo Aéronautique d'un coup d'oeil ! - Copyright ORBIFLY Décembre 2007 - Disclaimer

ORBIFLY MET'MAP TEAM :

Programmation & Développement : Alexandra Zaïnal
Conception & Développement : Baudouin d'Aumeries
Co-Programmation & Développement : Marc-Olivier Méhu
Soutien technique & logistique : Manuel Goepfert

Contact : metmap@orbifly.com




SOURCES & CREDITS :

   NOAA